sensor_id;sensor_type;location;lat;lon;timestamp;temperature;humidity
6841;DHT22;3458;53.678;14.080;2023-02-18T00:00:12;7.40;99.90
6841;DHT22;3458;53.678;14.080;2023-02-18T00:02:38;7.30;99.90
6841;DHT22;3458;53.678;14.080;2023-02-18T00:05:04;7.30;99.90
6841;DHT22;3458;53.678;14.080;2023-02-18T00:07:36;7.30;99.90
6841;DHT22;3458;53.678;14.080;2023-02-18T00:10:04;7.30;99.90
6841;DHT22;3458;53.678;14.080;2023-02-18T00:12:30;7.20;99.90
6841;DHT22;3458;53.678;14.080;2023-02-18T00:14:56;7.20;99.90
6841;DHT22;3458;53.678;14.080;2023-02-18T00:17:22;7.20;99.90
6841;DHT22;3458;53.678;14.080;2023-02-18T00:19:47;7.20;99.90
6841;DHT22;3458;53.678;14.080;2023-02-18T00:22:13;7.20;99.90
6841;DHT22;3458;53.678;14.080;2023-02-18T00:24:38;7.10;99.90
6841;DHT22;3458;53.678;14.080;2023-02-18T00:27:04;7.10;99.90
6841;DHT22;3458;53.678;14.080;2023-02-18T00:29:29;7.10;99.90
6841;DHT22;3458;53.678;14.080;2023-02-18T00:31:55;7.10;99.90
6841;DHT22;3458;53.678;14.080;2023-02-18T00:34:20;7.10;99.90
6841;DHT22;3458;53.678;14.080;2023-02-18T00:36:46;7.20;99.90
6841;DHT22;3458;53.678;14.080;2023-02-18T00:39:12;7.20;99.90
6841;DHT22;3458;53.678;14.080;2023-02-18T00:41:38;7.20;99.90
6841;DHT22;3458;53.678;14.080;2023-02-18T00:44:04;7.20;99.90
6841;DHT22;3458;53.678;14.080;2023-02-18T00:46:29;7.20;99.90
6841;DHT22;3458;53.678;14.080;2023-02-18T00:48:55;7.20;99.90
6841;DHT22;3458;53.678;14.080;2023-02-18T00:51:22;7.20;99.90
6841;DHT22;3458;53.678;14.080;2023-02-18T00:53:48;7.20;99.90
6841;DHT22;3458;53.678;14.080;2023-02-18T00:56:14;7.20;99.90
6841;DHT22;3458;53.678;14.080;2023-02-18T00:58:39;7.30;99.90
6841;DHT22;3458;53.678;14.080;2023-02-18T01:01:06;7.30;99.90
6841;DHT22;3458;53.678;14.080;2023-02-18T01:03:32;7.30;99.90
6841;DHT22;3458;53.678;14.080;2023-02-18T01:05:57;7.30;99.90
6841;DHT22;3458;53.678;14.080;2023-02-18T01:08:23;7.40;99.90
6841;DHT22;3458;53.678;14.080;2023-02-18T01:10:51;7.30;99.90
6841;DHT22;3458;53.678;14.080;2023-02-18T01:13:17;7.30;99.90
6841;DHT22;3458;53.678;14.080;2023-02-18T01:15:43;7.30;99.90
6841;DHT22;3458;53.678;14.080;2023-02-18T01:18:11;7.30;99.90
6841;DHT22;3458;53.678;14.080;2023-02-18T01:20:38;7.30;99.90
6841;DHT22;3458;53.678;14.080;2023-02-18T01:23:05;7.20;99.90
6841;DHT22;3458;53.678;14.080;2023-02-18T01:25:30;7.20;99.90
6841;DHT22;3458;53.678;14.080;2023-02-18T01:27:56;7.10;99.90
6841;DHT22;3458;53.678;14.080;2023-02-18T01:30:22;7.10;99.90
6841;DHT22;3458;53.678;14.080;2023-02-18T01:32:47;7.10;99.90
6841;DHT22;3458;53.678;14.080;2023-02-18T01:35:15;7.00;99.90
6841;DHT22;3458;53.678;14.080;2023-02-18T01:37:42;7.00;99.90
6841;DHT22;3458;53.678;14.080;2023-02-18T01:40:10;7.00;99.90
6841;DHT22;3458;53.678;14.080;2023-02-18T01:42:36;7.00;99.90
6841;DHT22;3458;53.678;14.080;2023-02-18T01:45:35;7.00;99.90
6841;DHT22;3458;53.678;14.080;2023-02-18T01:48:08;6.90;99.90
6841;DHT22;3458;53.678;14.080;2023-02-18T01:50:37;6.90;99.90
6841;DHT22;3458;53.678;14.080;2023-02-18T01:53:05;6.80;99.90
6841;DHT22;3458;53.678;14.080;2023-02-18T01:55:32;6.80;99.90
6841;DHT22;3458;53.678;14.080;2023-02-18T01:57:58;6.80;99.90
6841;DHT22;3458;53.678;14.080;2023-02-18T02:00:24;6.80;99.90
6841;DHT22;3458;53.678;14.080;2023-02-18T02:02:51;6.80;99.90
6841;DHT22;3458;53.678;14.080;2023-02-18T02:05:19;6.80;99.90
6841;DHT22;3458;53.678;14.080;2023-02-18T02:07:46;6.80;99.90
6841;DHT22;3458;53.678;14.080;2023-02-18T02:10:13;6.80;99.90
6841;DHT22;3458;53.678;14.080;2023-02-18T02:12:55;6.80;99.90
6841;DHT22;3458;53.678;14.080;2023-02-18T02:15:44;6.80;99.90
6841;DHT22;3458;53.678;14.080;2023-02-18T02:32:35;6.70;99.90
6841;DHT22;3458;53.678;14.080;2023-02-18T02:35:18;6.70;99.90
6841;DHT22;3458;53.678;14.080;2023-02-18T02:37:53;6.60;99.90
6841;DHT22;3458;53.678;14.080;2023-02-18T02:40:28;6.60;99.90
6841;DHT22;3458;53.678;14.080;2023-02-18T02:43:11;6.60;99.90
6841;DHT22;3458;53.678;14.080;2023-02-18T02:48:48;6.50;99.90
6841;DHT22;3458;53.678;14.080;2023-02-18T02:51:24;6.50;99.90
6841;DHT22;3458;53.678;14.080;2023-02-18T02:53:52;6.50;99.90
6841;DHT22;3458;53.678;14.080;2023-02-18T02:56:22;6.50;99.90
6841;DHT22;3458;53.678;14.080;2023-02-18T02:58:57;6.50;99.90
6841;DHT22;3458;53.678;14.080;2023-02-18T03:01:57;6.50;99.90
6841;DHT22;3458;53.678;14.080;2023-02-18T03:04:51;6.50;99.90
6841;DHT22;3458;53.678;14.080;2023-02-18T03:10:46;6.40;99.90
6841;DHT22;3458;53.678;14.080;2023-02-18T03:13:49;6.40;99.90
6841;DHT22;3458;53.678;14.080;2023-02-18T03:16:42;6.40;99.90
6841;DHT22;3458;53.678;14.080;2023-02-18T03:22:15;6.40;99.90
6841;DHT22;3458;53.678;14.080;2023-02-18T03:24:44;6.40;99.90
6841;DHT22;3458;53.678;14.080;2023-02-18T03:27:17;6.40;99.90
6841;DHT22;3458;53.678;14.080;2023-02-18T03:29:49;6.40;99.90
6841;DHT22;3458;53.678;14.080;2023-02-18T03:32:18;6.40;99.90
6841;DHT22;3458;53.678;14.080;2023-02-18T03:34:49;6.40;99.90
6841;DHT22;3458;53.678;14.080;2023-02-18T03:37:16;6.40;99.90
6841;DHT22;3458;53.678;14.080;2023-02-18T03:39:45;6.40;99.90
6841;DHT22;3458;53.678;14.080;2023-02-18T03:42:14;6.40;99.90
6841;DHT22;3458;53.678;14.080;2023-02-18T03:44:39;6.40;99.90
6841;DHT22;3458;53.678;14.080;2023-02-18T03:47:05;6.40;99.90
6841;DHT22;3458;53.678;14.080;2023-02-18T03:49:30;6.40;99.90
6841;DHT22;3458;53.678;14.080;2023-02-18T03:51:56;6.40;99.90
6841;DHT22;3458;53.678;14.080;2023-02-18T03:54:21;6.40;99.90
6841;DHT22;3458;53.678;14.080;2023-02-18T03:56:47;6.40;99.90
6841;DHT22;3458;53.678;14.080;2023-02-18T03:59:13;6.40;99.90
6841;DHT22;3458;53.678;14.080;2023-02-18T04:01:39;6.30;99.90
6841;DHT22;3458;53.678;14.080;2023-02-18T04:04:04;6.30;99.90
6841;DHT22;3458;53.678;14.080;2023-02-18T04:06:30;6.30;99.90
6841;DHT22;3458;53.678;14.080;2023-02-18T04:08:56;6.30;99.90
6841;DHT22;3458;53.678;14.080;2023-02-18T04:11:21;6.30;99.90
6841;DHT22;3458;53.678;14.080;2023-02-18T04:13:47;6.30;99.90
6841;DHT22;3458;53.678;14.080;2023-02-18T04:16:13;6.30;99.90
6841;DHT22;3458;53.678;14.080;2023-02-18T04:18:38;6.30;99.90
6841;DHT22;3458;53.678;14.080;2023-02-18T04:21:04;6.30;99.90
6841;DHT22;3458;53.678;14.080;2023-02-18T04:23:30;6.30;99.90
6841;DHT22;3458;53.678;14.080;2023-02-18T04:25:55;6.30;99.90
6841;DHT22;3458;53.678;14.080;2023-02-18T04:28:21;6.30;99.90
6841;DHT22;3458;53.678;14.080;2023-02-18T04:30:47;6.30;99.90
6841;DHT22;3458;53.678;14.080;2023-02-18T04:33:13;6.30;99.90
6841;DHT22;3458;53.678;14.080;2023-02-18T04:35:39;6.40;99.90
6841;DHT22;3458;53.678;14.080;2023-02-18T04:38:06;6.40;99.90
6841;DHT22;3458;53.678;14.080;2023-02-18T04:40:32;6.40;99.90
6841;DHT22;3458;53.678;14.080;2023-02-18T04:42:57;6.30;99.90
6841;DHT22;3458;53.678;14.080;2023-02-18T04:45:24;6.30;99.90
6841;DHT22;3458;53.678;14.080;2023-02-18T04:47:49;6.30;99.90
6841;DHT22;3458;53.678;14.080;2023-02-18T04:50:15;6.30;99.90
6841;DHT22;3458;53.678;14.080;2023-02-18T04:52:40;6.30;99.90
6841;DHT22;3458;53.678;14.080;2023-02-18T04:55:06;6.30;99.90
6841;DHT22;3458;53.678;14.080;2023-02-18T04:57:32;6.30;99.90
6841;DHT22;3458;53.678;14.080;2023-02-18T04:59:57;6.30;99.90
6841;DHT22;3458;53.678;14.080;2023-02-18T05:02:23;6.20;99.90
6841;DHT22;3458;53.678;14.080;2023-02-18T05:04:48;6.30;99.90
6841;DHT22;3458;53.678;14.080;2023-02-18T05:07:14;6.30;99.90
6841;DHT22;3458;53.678;14.080;2023-02-18T05:09:39;6.30;99.90
6841;DHT22;3458;53.678;14.080;2023-02-18T05:12:05;6.30;99.90
6841;DHT22;3458;53.678;14.080;2023-02-18T05:14:31;6.30;99.90
6841;DHT22;3458;53.678;14.080;2023-02-18T05:16:56;6.30;99.90
6841;DHT22;3458;53.678;14.080;2023-02-18T05:19:22;6.30;99.90
6841;DHT22;3458;53.678;14.080;2023-02-18T05:21:47;6.30;99.90
6841;DHT22;3458;53.678;14.080;2023-02-18T05:24:13;6.30;99.90
6841;DHT22;3458;53.678;14.080;2023-02-18T05:26:39;6.30;99.90
6841;DHT22;3458;53.678;14.080;2023-02-18T05:29:04;6.20;99.90
6841;DHT22;3458;53.678;14.080;2023-02-18T05:31:30;6.20;99.90
6841;DHT22;3458;53.678;14.080;2023-02-18T05:33:56;6.30;99.90
6841;DHT22;3458;53.678;14.080;2023-02-18T05:36:21;6.20;99.90
6841;DHT22;3458;53.678;14.080;2023-02-18T05:38:47;6.20;99.90
6841;DHT22;3458;53.678;14.080;2023-02-18T05:41:12;6.20;99.90
6841;DHT22;3458;53.678;14.080;2023-02-18T05:43:38;6.20;99.90
6841;DHT22;3458;53.678;14.080;2023-02-18T05:46:22;6.30;99.90
6841;DHT22;3458;53.678;14.080;2023-02-18T05:48:48;6.30;99.90
6841;DHT22;3458;53.678;14.080;2023-02-18T05:51:14;6.30;99.90
6841;DHT22;3458;53.678;14.080;2023-02-18T05:53:39;6.40;99.90
6841;DHT22;3458;53.678;14.080;2023-02-18T05:56:05;6.40;99.90
6841;DHT22;3458;53.678;14.080;2023-02-18T05:58:31;6.30;99.90
6841;DHT22;3458;53.678;14.080;2023-02-18T06:00:57;6.40;99.90
6841;DHT22;3458;53.678;14.080;2023-02-18T06:03:22;6.40;99.90
6841;DHT22;3458;53.678;14.080;2023-02-18T06:05:51;6.40;99.90
6841;DHT22;3458;53.678;14.080;2023-02-18T06:08:17;6.40;99.90
6841;DHT22;3458;53.678;14.080;2023-02-18T06:10:44;6.30;99.90
6841;DHT22;3458;53.678;14.080;2023-02-18T06:13:10;6.30;99.90
6841;DHT22;3458;53.678;14.080;2023-02-18T06:15:36;6.30;99.90
6841;DHT22;3458;53.678;14.080;2023-02-18T06:18:02;6.30;99.90
6841;DHT22;3458;53.678;14.080;2023-02-18T06:20:27;6.30;99.90
6841;DHT22;3458;53.678;14.080;2023-02-18T06:22:53;6.30;99.90
6841;DHT22;3458;53.678;14.080;2023-02-18T06:25:18;6.30;99.90
6841;DHT22;3458;53.678;14.080;2023-02-18T06:27:44;6.30;99.90
6841;DHT22;3458;53.678;14.080;2023-02-18T06:30:09;6.30;99.90
6841;DHT22;3458;53.678;14.080;2023-02-18T06:32:35;6.30;99.90
6841;DHT22;3458;53.678;14.080;2023-02-18T06:35:00;6.30;99.90
6841;DHT22;3458;53.678;14.080;2023-02-18T06:37:26;6.30;99.90
6841;DHT22;3458;53.678;14.080;2023-02-18T06:39:51;6.30;99.90
6841;DHT22;3458;53.678;14.080;2023-02-18T06:42:17;6.30;99.90
6841;DHT22;3458;53.678;14.080;2023-02-18T06:44:42;6.30;99.90
6841;DHT22;3458;53.678;14.080;2023-02-18T06:47:08;6.30;99.90
6841;DHT22;3458;53.678;14.080;2023-02-18T06:49:33;6.40;99.90
6841;DHT22;3458;53.678;14.080;2023-02-18T06:52:00;6.40;99.90
6841;DHT22;3458;53.678;14.080;2023-02-18T06:54:26;6.30;99.90
6841;DHT22;3458;53.678;14.080;2023-02-18T06:56:51;6.30;99.90
6841;DHT22;3458;53.678;14.080;2023-02-18T06:59:17;6.30;99.90
6841;DHT22;3458;53.678;14.080;2023-02-18T07:01:43;6.30;99.90
6841;DHT22;3458;53.678;14.080;2023-02-18T07:04:09;6.40;99.90
6841;DHT22;3458;53.678;14.080;2023-02-18T07:06:35;6.40;99.90
6841;DHT22;3458;53.678;14.080;2023-02-18T07:09:00;6.40;99.90
6841;DHT22;3458;53.678;14.080;2023-02-18T07:11:26;6.40;99.90
6841;DHT22;3458;53.678;14.080;2023-02-18T07:13:51;6.40;99.90
6841;DHT22;3458;53.678;14.080;2023-02-18T07:16:17;6.50;99.90
6841;DHT22;3458;53.678;14.080;2023-02-18T07:18:42;6.50;99.90
6841;DHT22;3458;53.678;14.080;2023-02-18T07:21:08;6.50;99.90
6841;DHT22;3458;53.678;14.080;2023-02-18T07:23:33;6.50;99.90
6841;DHT22;3458;53.678;14.080;2023-02-18T07:26:07;6.50;99.90
6841;DHT22;3458;53.678;14.080;2023-02-18T07:28:33;6.50;99.90
6841;DHT22;3458;53.678;14.080;2023-02-18T07:30:59;6.50;99.90
6841;DHT22;3458;53.678;14.080;2023-02-18T07:33:24;6.60;99.90
6841;DHT22;3458;53.678;14.080;2023-02-18T07:35:54;6.60;99.90
6841;DHT22;3458;53.678;14.080;2023-02-18T07:38:20;6.60;99.90
6841;DHT22;3458;53.678;14.080;2023-02-18T07:40:46;6.60;99.90
6841;DHT22;3458;53.678;14.080;2023-02-18T07:43:11;6.70;99.90
6841;DHT22;3458;53.678;14.080;2023-02-18T07:45:37;6.60;99.90
6841;DHT22;3458;53.678;14.080;2023-02-18T07:48:03;6.70;99.90
6841;DHT22;3458;53.678;14.080;2023-02-18T07:50:29;6.70;99.90
6841;DHT22;3458;53.678;14.080;2023-02-18T07:53:00;6.70;99.90
6841;DHT22;3458;53.678;14.080;2023-02-18T07:55:25;6.70;99.90
6841;DHT22;3458;53.678;14.080;2023-02-18T07:58:11;6.70;99.90
6841;DHT22;3458;53.678;14.080;2023-02-18T08:00:36;6.70;99.90
6841;DHT22;3458;53.678;14.080;2023-02-18T08:03:02;6.70;99.90
6841;DHT22;3458;53.678;14.080;2023-02-18T08:05:28;6.70;99.90
6841;DHT22;3458;53.678;14.080;2023-02-18T08:07:53;6.70;99.90
6841;DHT22;3458;53.678;14.080;2023-02-18T08:10:19;6.80;99.90
6841;DHT22;3458;53.678;14.080;2023-02-18T08:12:44;6.80;99.90
6841;DHT22;3458;53.678;14.080;2023-02-18T08:15:10;6.90;99.90
6841;DHT22;3458;53.678;14.080;2023-02-18T08:17:35;6.90;99.90
6841;DHT22;3458;53.678;14.080;2023-02-18T08:20:01;6.80;99.90
6841;DHT22;3458;53.678;14.080;2023-02-18T08:22:26;6.80;99.90
6841;DHT22;3458;53.678;14.080;2023-02-18T08:24:55;6.80;99.90
6841;DHT22;3458;53.678;14.080;2023-02-18T08:27:20;6.80;99.90
6841;DHT22;3458;53.678;14.080;2023-02-18T08:29:46;6.80;99.90
6841;DHT22;3458;53.678;14.080;2023-02-18T08:32:12;7.00;99.90
6841;DHT22;3458;53.678;14.080;2023-02-18T08:34:38;7.20;99.90
6841;DHT22;3458;53.678;14.080;2023-02-18T08:37:03;7.30;99.90
6841;DHT22;3458;53.678;14.080;2023-02-18T08:39:33;7.30;99.90
6841;DHT22;3458;53.678;14.080;2023-02-18T08:41:59;7.40;99.90
6841;DHT22;3458;53.678;14.080;2023-02-18T08:44:26;7.50;99.90
6841;DHT22;3458;53.678;14.080;2023-02-18T08:46:51;7.50;99.90
6841;DHT22;3458;53.678;14.080;2023-02-18T08:49:17;7.60;99.90
6841;DHT22;3458;53.678;14.080;2023-02-18T08:51:54;7.70;99.90
6841;DHT22;3458;53.678;14.080;2023-02-18T08:54:19;7.80;99.90
6841;DHT22;3458;53.678;14.080;2023-02-18T08:56:45;7.70;99.90
6841;DHT22;3458;53.678;14.080;2023-02-18T08:59:11;7.70;99.90
6841;DHT22;3458;53.678;14.080;2023-02-18T09:01:36;7.70;99.90
6841;DHT22;3458;53.678;14.080;2023-02-18T09:04:02;7.70;99.90
6841;DHT22;3458;53.678;14.080;2023-02-18T09:06:27;7.70;99.90
6841;DHT22;3458;53.678;14.080;2023-02-18T09:08:53;7.70;99.90
6841;DHT22;3458;53.678;14.080;2023-02-18T09:11:19;7.70;99.90
6841;DHT22;3458;53.678;14.080;2023-02-18T09:13:45;7.70;99.90
6841;DHT22;3458;53.678;14.080;2023-02-18T09:16:14;7.70;99.90
6841;DHT22;3458;53.678;14.080;2023-02-18T09:18:42;7.70;99.90
6841;DHT22;3458;53.678;14.080;2023-02-18T09:21:10;7.80;99.90
6841;DHT22;3458;53.678;14.080;2023-02-18T09:23:36;7.70;99.90
6841;DHT22;3458;53.678;14.080;2023-02-18T09:26:07;7.70;99.90
6841;DHT22;3458;53.678;14.080;2023-02-18T09:28:33;7.60;99.90
6841;DHT22;3458;53.678;14.080;2023-02-18T09:31:07;7.60;99.90
6841;DHT22;3458;53.678;14.080;2023-02-18T09:33:38;7.60;99.90
6841;DHT22;3458;53.678;14.080;2023-02-18T09:36:04;7.70;99.90
6841;DHT22;3458;53.678;14.080;2023-02-18T09:38:30;7.70;99.90
6841;DHT22;3458;53.678;14.080;2023-02-18T09:40:56;7.70;99.90
6841;DHT22;3458;53.678;14.080;2023-02-18T09:43:32;7.70;99.90
6841;DHT22;3458;53.678;14.080;2023-02-18T09:46:00;7.80;99.90
6841;DHT22;3458;53.678;14.080;2023-02-18T09:48:34;7.80;99.90
6841;DHT22;3458;53.678;14.080;2023-02-18T09:51:00;7.80;99.90
6841;DHT22;3458;53.678;14.080;2023-02-18T09:53:26;7.80;99.90
6841;DHT22;3458;53.678;14.080;2023-02-18T09:55:53;7.70;99.90
6841;DHT22;3458;53.678;14.080;2023-02-18T09:58:24;7.70;99.90
6841;DHT22;3458;53.678;14.080;2023-02-18T10:01:03;7.70;99.90
6841;DHT22;3458;53.678;14.080;2023-02-18T10:03:29;7.70;99.90
6841;DHT22;3458;53.678;14.080;2023-02-18T10:06:05;7.70;99.90
6841;DHT22;3458;53.678;14.080;2023-02-18T10:08:38;7.70;99.90
6841;DHT22;3458;53.678;14.080;2023-02-18T10:11:14;7.70;99.90
6841;DHT22;3458;53.678;14.080;2023-02-18T10:13:42;7.80;99.90
6841;DHT22;3458;53.678;14.080;2023-02-18T10:16:09;7.80;99.90
6841;DHT22;3458;53.678;14.080;2023-02-18T10:18:41;7.80;99.90
6841;DHT22;3458;53.678;14.080;2023-02-18T10:21:12;7.70;99.90
6841;DHT22;3458;53.678;14.080;2023-02-18T10:23:41;7.70;99.90
6841;DHT22;3458;53.678;14.080;2023-02-18T10:26:13;7.70;99.90
6841;DHT22;3458;53.678;14.080;2023-02-18T10:28:40;7.70;99.90
6841;DHT22;3458;53.678;14.080;2023-02-18T10:31:08;7.70;99.90
6841;DHT22;3458;53.678;14.080;2023-02-18T10:33:58;7.60;99.90
6841;DHT22;3458;53.678;14.080;2023-02-18T10:36:25;7.60;99.90
6841;DHT22;3458;53.678;14.080;2023-02-18T10:39:20;7.50;99.90
6841;DHT22;3458;53.678;14.080;2023-02-18T10:42:19;7.50;99.90
6841;DHT22;3458;53.678;14.080;2023-02-18T10:47:46;7.50;99.90
6841;DHT22;3458;53.678;14.080;2023-02-18T10:50:29;7.50;99.90
6841;DHT22;3458;53.678;14.080;2023-02-18T10:53:00;7.50;99.90
6841;DHT22;3458;53.678;14.080;2023-02-18T10:55:38;7.50;99.90
6841;DHT22;3458;53.678;14.080;2023-02-18T10:58:33;7.50;99.90
6841;DHT22;3458;53.678;14.080;2023-02-18T11:01:14;7.50;99.90
6841;DHT22;3458;53.678;14.080;2023-02-18T11:03:43;7.50;99.90
6841;DHT22;3458;53.678;14.080;2023-02-18T11:06:45;7.40;99.90
6841;DHT22;3458;53.678;14.080;2023-02-18T11:09:28;7.40;99.90
6841;DHT22;3458;53.678;14.080;2023-02-18T11:12:04;7.30;99.90
6841;DHT22;3458;53.678;14.080;2023-02-18T11:14:44;7.20;99.90
6841;DHT22;3458;53.678;14.080;2023-02-18T11:17:20;7.10;99.90
6841;DHT22;3458;53.678;14.080;2023-02-18T11:20:39;7.10;99.90
6841;DHT22;3458;53.678;14.080;2023-02-18T11:22:40;7.10;99.90
6841;DHT22;3458;53.678;14.080;2023-02-18T11:25:19;7.10;99.90
6841;DHT22;3458;53.678;14.080;2023-02-18T11:27:49;7.10;99.90
6841;DHT22;3458;53.678;14.080;2023-02-18T11:30:22;7.10;99.90
6841;DHT22;3458;53.678;14.080;2023-02-18T11:32:56;7.10;99.90
6841;DHT22;3458;53.678;14.080;2023-02-18T11:35:26;7.10;99.90
6841;DHT22;3458;53.678;14.080;2023-02-18T11:37:55;7.10;99.90
6841;DHT22;3458;53.678;14.080;2023-02-18T11:40:25;7.10;99.90
6841;DHT22;3458;53.678;14.080;2023-02-18T11:43:05;7.10;99.90
6841;DHT22;3458;53.678;14.080;2023-02-18T11:45:33;7.00;99.90
6841;DHT22;3458;53.678;14.080;2023-02-18T11:48:22;7.00;99.90
6841;DHT22;3458;53.678;14.080;2023-02-18T11:50:52;7.00;99.90
6841;DHT22;3458;53.678;14.080;2023-02-18T11:53:36;6.90;99.90
6841;DHT22;3458;53.678;14.080;2023-02-18T11:56:15;7.00;99.90
6841;DHT22;3458;53.678;14.080;2023-02-18T11:58:44;6.90;99.90
6841;DHT22;3458;53.678;14.080;2023-02-18T12:01:59;6.90;99.90
6841;DHT22;3458;53.678;14.080;2023-02-18T12:04:15;6.80;99.90
6841;DHT22;3458;53.678;14.080;2023-02-18T12:07:00;6.70;99.90
6841;DHT22;3458;53.678;14.080;2023-02-18T12:12:23;6.60;99.90
6841;DHT22;3458;53.678;14.080;2023-02-18T12:14:51;6.70;99.90
6841;DHT22;3458;53.678;14.080;2023-02-18T12:20:35;6.80;99.90
6841;DHT22;3458;53.678;14.080;2023-02-18T12:26:22;6.80;99.90
6841;DHT22;3458;53.678;14.080;2023-02-18T12:29:27;6.90;99.90
6841;DHT22;3458;53.678;14.080;2023-02-18T12:32:03;6.90;99.90
6841;DHT22;3458;53.678;14.080;2023-02-18T12:35:08;7.00;99.90
6841;DHT22;3458;53.678;14.080;2023-02-18T12:38:11;7.10;99.90
6841;DHT22;3458;53.678;14.080;2023-02-18T12:43:57;7.10;99.90
6841;DHT22;3458;53.678;14.080;2023-02-18T12:55:20;6.90;99.90
6841;DHT22;3458;53.678;14.080;2023-02-18T13:01:10;7.10;99.90
6841;DHT22;3458;53.678;14.080;2023-02-18T13:06:41;7.00;99.90
6841;DHT22;3458;53.678;14.080;2023-02-18T13:12:27;6.90;99.90
6841;DHT22;3458;53.678;14.080;2023-02-18T13:14:59;6.90;99.90
6841;DHT22;3458;53.678;14.080;2023-02-18T13:17:28;6.90;99.90
6841;DHT22;3458;53.678;14.080;2023-02-18T13:19:58;6.90;99.90
6841;DHT22;3458;53.678;14.080;2023-02-18T13:22:28;7.00;99.90
6841;DHT22;3458;53.678;14.080;2023-02-18T13:24:56;6.90;99.90
6841;DHT22;3458;53.678;14.080;2023-02-18T13:27:40;6.90;99.90
6841;DHT22;3458;53.678;14.080;2023-02-18T13:30:42;7.00;99.90
6841;DHT22;3458;53.678;14.080;2023-02-18T13:33:31;7.00;99.90
6841;DHT22;3458;53.678;14.080;2023-02-18T13:38:57;7.00;99.90
6841;DHT22;3458;53.678;14.080;2023-02-18T13:41:26;6.80;99.90
6841;DHT22;3458;53.678;14.080;2023-02-18T13:43:51;6.70;99.90
6841;DHT22;3458;53.678;14.080;2023-02-18T13:46:19;6.80;99.90
6841;DHT22;3458;53.678;14.080;2023-02-18T13:51:46;6.70;99.90
6841;DHT22;3458;53.678;14.080;2023-02-18T13:56:57;6.50;99.90
6841;DHT22;3458;53.678;14.080;2023-02-18T14:13:01;6.30;99.90
6841;DHT22;3458;53.678;14.080;2023-02-18T14:23:11;6.20;99.90
6841;DHT22;3458;53.678;14.080;2023-02-18T14:33:39;6.20;99.90
6841;DHT22;3458;53.678;14.080;2023-02-18T14:36:28;6.10;99.90
6841;DHT22;3458;53.678;14.080;2023-02-18T14:39:04;6.00;99.90
6841;DHT22;3458;53.678;14.080;2023-02-18T14:47:16;5.90;99.90
6841;DHT22;3458;53.678;14.080;2023-02-18T14:49:53;5.90;99.90
6841;DHT22;3458;53.678;14.080;2023-02-18T14:54:50;6.00;99.90
6841;DHT22;3458;53.678;14.080;2023-02-18T14:57:17;6.00;99.90
6841;DHT22;3458;53.678;14.080;2023-02-18T14:59:46;6.00;99.90
6841;DHT22;3458;53.678;14.080;2023-02-18T15:02:23;6.10;99.90
6841;DHT22;3458;53.678;14.080;2023-02-18T15:04:52;6.10;99.90
6841;DHT22;3458;53.678;14.080;2023-02-18T15:07:20;6.10;99.90
6841;DHT22;3458;53.678;14.080;2023-02-18T15:09:53;6.20;99.90
6841;DHT22;3458;53.678;14.080;2023-02-18T15:12:21;6.20;99.90
6841;DHT22;3458;53.678;14.080;2023-02-18T15:14:50;6.20;99.90
6841;DHT22;3458;53.678;14.080;2023-02-18T15:17:19;6.20;99.90
6841;DHT22;3458;53.678;14.080;2023-02-18T15:19:56;6.20;99.90
6841;DHT22;3458;53.678;14.080;2023-02-18T15:22:24;6.10;99.90
6841;DHT22;3458;53.678;14.080;2023-02-18T15:24:52;6.10;99.90
6841;DHT22;3458;53.678;14.080;2023-02-18T15:29:56;5.90;99.90
6841;DHT22;3458;53.678;14.080;2023-02-18T15:32:25;5.90;99.90
6841;DHT22;3458;53.678;14.080;2023-02-18T15:35:14;5.90;99.90
6841;DHT22;3458;53.678;14.080;2023-02-18T15:37:44;5.90;99.90
6841;DHT22;3458;53.678;14.080;2023-02-18T15:40:16;5.80;99.90
6841;DHT22;3458;53.678;14.080;2023-02-18T15:42:45;5.70;99.90
6841;DHT22;3458;53.678;14.080;2023-02-18T15:45:22;5.60;99.90
6841;DHT22;3458;53.678;14.080;2023-02-18T15:47:53;5.60;99.90
6841;DHT22;3458;53.678;14.080;2023-02-18T15:50:25;5.60;99.90
6841;DHT22;3458;53.678;14.080;2023-02-18T15:52:53;5.60;99.90
6841;DHT22;3458;53.678;14.080;2023-02-18T15:55:33;5.60;99.90
6841;DHT22;3458;53.678;14.080;2023-02-18T15:58:04;5.60;99.90
6841;DHT22;3458;53.678;14.080;2023-02-18T16:00:40;5.60;99.90
6841;DHT22;3458;53.678;14.080;2023-02-18T16:03:19;5.60;99.90
6841;DHT22;3458;53.678;14.080;2023-02-18T16:05:44;5.60;99.90
6841;DHT22;3458;53.678;14.080;2023-02-18T16:08:14;5.60;99.90
6841;DHT22;3458;53.678;14.080;2023-02-18T16:10:46;5.60;99.90
6841;DHT22;3458;53.678;14.080;2023-02-18T16:13:14;5.70;99.90
6841;DHT22;3458;53.678;14.080;2023-02-18T16:15:43;5.70;99.90
6841;DHT22;3458;53.678;14.080;2023-02-18T16:18:48;5.60;99.90
6841;DHT22;3458;53.678;14.080;2023-02-18T16:24:01;5.60;99.90
6841;DHT22;3458;53.678;14.080;2023-02-18T16:26:46;5.60;99.90
6841;DHT22;3458;53.678;14.080;2023-02-18T16:32:10;5.60;99.90
6841;DHT22;3458;53.678;14.080;2023-02-18T16:34:35;5.60;99.90
6841;DHT22;3458;53.678;14.080;2023-02-18T16:37:01;5.60;99.90
6841;DHT22;3458;53.678;14.080;2023-02-18T16:40:03;5.60;99.90
6841;DHT22;3458;53.678;14.080;2023-02-18T16:42:28;5.50;99.90
6841;DHT22;3458;53.678;14.080;2023-02-18T16:44:54;5.50;99.90
6841;DHT22;3458;53.678;14.080;2023-02-18T16:47:19;5.50;99.90
6841;DHT22;3458;53.678;14.080;2023-02-18T16:49:47;5.50;99.90
6841;DHT22;3458;53.678;14.080;2023-02-18T16:52:15;5.50;99.90
6841;DHT22;3458;53.678;14.080;2023-02-18T16:54:41;5.60;99.90
6841;DHT22;3458;53.678;14.080;2023-02-18T16:57:09;5.50;99.90
6841;DHT22;3458;53.678;14.080;2023-02-18T16:59:34;5.60;99.90
6841;DHT22;3458;53.678;14.080;2023-02-18T17:02:00;5.50;99.90
6841;DHT22;3458;53.678;14.080;2023-02-18T17:04:26;5.50;99.90
6841;DHT22;3458;53.678;14.080;2023-02-18T17:06:51;5.50;99.90
6841;DHT22;3458;53.678;14.080;2023-02-18T17:09:21;5.40;99.90
6841;DHT22;3458;53.678;14.080;2023-02-18T17:11:49;5.30;99.90
6841;DHT22;3458;53.678;14.080;2023-02-18T17:14:16;5.30;99.90
6841;DHT22;3458;53.678;14.080;2023-02-18T17:16:43;5.20;99.90
6841;DHT22;3458;53.678;14.080;2023-02-18T17:19:09;5.30;99.90
6841;DHT22;3458;53.678;14.080;2023-02-18T17:21:34;5.20;99.90
6841;DHT22;3458;53.678;14.080;2023-02-18T17:24:00;5.20;99.90
6841;DHT22;3458;53.678;14.080;2023-02-18T17:26:28;5.10;99.90
6841;DHT22;3458;53.678;14.080;2023-02-18T17:28:55;5.10;99.90
6841;DHT22;3458;53.678;14.080;2023-02-18T17:31:23;5.10;99.90
6841;DHT22;3458;53.678;14.080;2023-02-18T17:33:52;5.10;99.90
6841;DHT22;3458;53.678;14.080;2023-02-18T17:36:17;5.00;99.90
6841;DHT22;3458;53.678;14.080;2023-02-18T17:38:43;4.90;99.90
6841;DHT22;3458;53.678;14.080;2023-02-18T17:41:11;4.90;99.90
6841;DHT22;3458;53.678;14.080;2023-02-18T17:43:37;4.90;99.90
6841;DHT22;3458;53.678;14.080;2023-02-18T17:46:03;4.80;99.90
6841;DHT22;3458;53.678;14.080;2023-02-18T17:48:29;4.80;99.90
6841;DHT22;3458;53.678;14.080;2023-02-18T17:50:55;4.80;99.90
6841;DHT22;3458;53.678;14.080;2023-02-18T17:53:21;4.80;99.90
6841;DHT22;3458;53.678;14.080;2023-02-18T17:55:47;4.80;99.90
6841;DHT22;3458;53.678;14.080;2023-02-18T17:58:13;4.80;99.90
6841;DHT22;3458;53.678;14.080;2023-02-18T18:00:42;4.70;99.90
6841;DHT22;3458;53.678;14.080;2023-02-18T18:03:13;4.70;99.90
6841;DHT22;3458;53.678;14.080;2023-02-18T18:05:42;4.70;99.90
6841;DHT22;3458;53.678;14.080;2023-02-18T18:08:08;4.70;99.90
6841;DHT22;3458;53.678;14.080;2023-02-18T18:10:36;4.60;99.90